sensor_id;sensor_type;location;lat;lon;timestamp;P1;durP1;ratioP1;P2;durP2;ratioP2
14052;SDS011;7101;51.600;7.310;2022-09-09T00:00:47;0.90;;;0.50;;
14052;SDS011;7101;51.600;7.310;2022-09-09T00:03:23;0.50;;;0.50;;
14052;SDS011;7101;51.600;7.310;2022-09-09T00:05:54;0.90;;;0.70;;
14052;SDS011;7101;51.600;7.310;2022-09-09T00:08:29;1.30;;;0.60;;
14052;SDS011;7101;51.600;7.310;2022-09-09T00:11:08;1.88;;;1.00;;
14052;SDS011;7101;51.600;7.310;2022-09-09T00:13:39;1.48;;;0.80;;
14052;SDS011;7101;51.600;7.310;2022-09-09T00:16:13;1.88;;;0.65;;
14052;SDS011;7101;51.600;7.310;2022-09-09T00:18:47;1.27;;;0.63;;
14052;SDS011;7101;51.600;7.310;2022-09-09T00:21:18;2.42;;;0.77;;
14052;SDS011;7101;51.600;7.310;2022-09-09T00:23:50;1.10;;;0.70;;
14052;SDS011;7101;51.600;7.310;2022-09-09T00:26:22;2.75;;;0.90;;
14052;SDS011;7101;51.600;7.310;2022-09-09T00:28:58;2.90;;;0.98;;
14052;SDS011;7101;51.600;7.310;2022-09-09T00:31:31;1.75;;;0.82;;
14052;SDS011;7101;51.600;7.310;2022-09-09T00:33:59;1.85;;;1.00;;
14052;SDS011;7101;51.600;7.310;2022-09-09T00:36:31;5.35;;;1.20;;
14052;SDS011;7101;51.600;7.310;2022-09-09T00:39:00;2.08;;;0.80;;
14052;SDS011;7101;51.600;7.310;2022-09-09T00:41:31;2.25;;;0.85;;
14052;SDS011;7101;51.600;7.310;2022-09-09T00:44:10;2.90;;;0.90;;
14052;SDS011;7101;51.600;7.310;2022-09-09T00:49:39;1.77;;;0.80;;
14052;SDS011;7101;51.600;7.310;2022-09-09T00:52:20;2.30;;;0.98;;
14052;SDS011;7101;51.600;7.310;2022-09-09T00:54:55;1.10;;;0.70;;
14052;SDS011;7101;51.600;7.310;2022-09-09T00:57:30;1.52;;;0.82;;
14052;SDS011;7101;51.600;7.310;2022-09-09T01:00:15;2.75;;;1.00;;
14052;SDS011;7101;51.600;7.310;2022-09-09T01:02:56;2.00;;;0.85;;
14052;SDS011;7101;51.600;7.310;2022-09-09T01:05:33;3.33;;;1.02;;
14052;SDS011;7101;51.600;7.310;2022-09-09T01:08:09;1.90;;;1.10;;
14052;SDS011;7101;51.600;7.310;2022-09-09T01:10:44;1.38;;;0.60;;
14052;SDS011;7101;51.600;7.310;2022-09-09T01:13:19;2.40;;;0.88;;
14052;SDS011;7101;51.600;7.310;2022-09-09T01:15:50;1.73;;;0.90;;
14052;SDS011;7101;51.600;7.310;2022-09-09T01:18:19;2.50;;;0.90;;
14052;SDS011;7101;51.600;7.310;2022-09-09T01:20:53;2.90;;;0.95;;
14052;SDS011;7101;51.600;7.310;2022-09-09T01:23:38;1.77;;;0.80;;
14052;SDS011;7101;51.600;7.310;2022-09-09T01:26:24;3.28;;;0.90;;
14052;SDS011;7101;51.600;7.310;2022-09-09T01:28:53;1.52;;;0.70;;
14052;SDS011;7101;51.600;7.310;2022-09-09T01:31:21;3.20;;;1.02;;
14052;SDS011;7101;51.600;7.310;2022-09-09T01:33:52;2.70;;;1.10;;
14052;SDS011;7101;51.600;7.310;2022-09-09T01:36:21;3.80;;;1.00;;
14052;SDS011;7101;51.600;7.310;2022-09-09T01:38:58;2.83;;;1.00;;
14052;SDS011;7101;51.600;7.310;2022-09-09T01:41:26;2.65;;;1.15;;
14052;SDS011;7101;51.600;7.310;2022-09-09T01:43:54;1.05;;;0.80;;
14052;SDS011;7101;51.600;7.310;2022-09-09T01:46:21;3.30;;;0.98;;
14052;SDS011;7101;51.600;7.310;2022-09-09T01:48:49;2.65;;;1.02;;
14052;SDS011;7101;51.600;7.310;2022-09-09T01:51:17;3.00;;;1.10;;
14052;SDS011;7101;51.600;7.310;2022-09-09T01:53:44;2.00;;;1.13;;
14052;SDS011;7101;51.600;7.310;2022-09-09T01:56:15;2.13;;;1.13;;
14052;SDS011;7101;51.600;7.310;2022-09-09T01:58:57;2.17;;;1.42;;
14052;SDS011;7101;51.600;7.310;2022-09-09T02:01:36;2.75;;;1.30;;
14052;SDS011;7101;51.600;7.310;2022-09-09T02:04:14;3.63;;;1.55;;
14052;SDS011;7101;51.600;7.310;2022-09-09T02:06:49;2.35;;;1.40;;
14052;SDS011;7101;51.600;7.310;2022-09-09T02:09:22;3.78;;;1.58;;
14052;SDS011;7101;51.600;7.310;2022-09-09T02:11:51;2.38;;;1.30;;
14052;SDS011;7101;51.600;7.310;2022-09-09T02:14:26;4.53;;;1.42;;
14052;SDS011;7101;51.600;7.310;2022-09-09T02:16:56;2.88;;;1.60;;
14052;SDS011;7101;51.600;7.310;2022-09-09T02:19:29;2.83;;;1.58;;
14052;SDS011;7101;51.600;7.310;2022-09-09T02:21:59;3.15;;;1.60;;
14052;SDS011;7101;51.600;7.310;2022-09-09T02:24:27;3.60;;;1.63;;
14052;SDS011;7101;51.600;7.310;2022-09-09T02:26:58;3.03;;;1.60;;
14052;SDS011;7101;51.600;7.310;2022-09-09T02:29:29;4.55;;;1.60;;
14052;SDS011;7101;51.600;7.310;2022-09-09T02:32:01;3.25;;;1.30;;
14052;SDS011;7101;51.600;7.310;2022-09-09T02:34:31;4.97;;;1.63;;
14052;SDS011;7101;51.600;7.310;2022-09-09T02:37:01;4.18;;;1.40;;
14052;SDS011;7101;51.600;7.310;2022-09-09T02:39:31;3.53;;;1.48;;
14052;SDS011;7101;51.600;7.310;2022-09-09T02:41:57;6.07;;;1.60;;
14052;SDS011;7101;51.600;7.310;2022-09-09T02:44:24;3.90;;;1.83;;
14052;SDS011;7101;51.600;7.310;2022-09-09T02:47:05;3.70;;;1.50;;
14052;SDS011;7101;51.600;7.310;2022-09-09T02:49:41;3.15;;;1.42;;
14052;SDS011;7101;51.600;7.310;2022-09-09T02:52:16;3.88;;;1.33;;
14052;SDS011;7101;51.600;7.310;2022-09-09T02:54:47;5.88;;;1.77;;
14052;SDS011;7101;51.600;7.310;2022-09-09T02:57:21;4.22;;;1.48;;
14052;SDS011;7101;51.600;7.310;2022-09-09T02:59:50;2.63;;;1.63;;
14052;SDS011;7101;51.600;7.310;2022-09-09T03:02:19;4.50;;;1.45;;
14052;SDS011;7101;51.600;7.310;2022-09-09T03:04:45;4.38;;;1.42;;
14052;SDS011;7101;51.600;7.310;2022-09-09T03:07:16;4.60;;;1.65;;
14052;SDS011;7101;51.600;7.310;2022-09-09T03:09:45;3.03;;;1.55;;
14052;SDS011;7101;51.600;7.310;2022-09-09T03:12:13;3.42;;;1.60;;
14052;SDS011;7101;51.600;7.310;2022-09-09T03:14:40;6.40;;;1.55;;
14052;SDS011;7101;51.600;7.310;2022-09-09T03:17:07;4.32;;;1.60;;
14052;SDS011;7101;51.600;7.310;2022-09-09T03:19:35;4.57;;;1.80;;
14052;SDS011;7101;51.600;7.310;2022-09-09T03:22:02;4.03;;;1.55;;
14052;SDS011;7101;51.600;7.310;2022-09-09T03:24:30;3.33;;;1.67;;
14052;SDS011;7101;51.600;7.310;2022-09-09T03:26:57;2.00;;;1.50;;
14052;SDS011;7101;51.600;7.310;2022-09-09T03:29:24;4.72;;;1.70;;
14052;SDS011;7101;51.600;7.310;2022-09-09T03:31:50;7.32;;;1.67;;
14052;SDS011;7101;51.600;7.310;2022-09-09T03:34:17;2.95;;;1.40;;
14052;SDS011;7101;51.600;7.310;2022-09-09T03:36:46;5.47;;;1.70;;
14052;SDS011;7101;51.600;7.310;2022-09-09T03:39:13;4.22;;;1.60;;
14052;SDS011;7101;51.600;7.310;2022-09-09T03:41:40;2.35;;;1.50;;
14052;SDS011;7101;51.600;7.310;2022-09-09T03:44:07;7.20;;;1.60;;
14052;SDS011;7101;51.600;7.310;2022-09-09T03:46:34;3.70;;;1.42;;
14052;SDS011;7101;51.600;7.310;2022-09-09T03:49:01;2.78;;;1.83;;
14052;SDS011;7101;51.600;7.310;2022-09-09T03:51:27;2.75;;;1.27;;
14052;SDS011;7101;51.600;7.310;2022-09-09T03:53:56;6.20;;;1.83;;
14052;SDS011;7101;51.600;7.310;2022-09-09T03:56:23;3.88;;;1.65;;
14052;SDS011;7101;51.600;7.310;2022-09-09T03:58:50;4.13;;;1.88;;
14052;SDS011;7101;51.600;7.310;2022-09-09T04:01:17;2.42;;;1.50;;
14052;SDS011;7101;51.600;7.310;2022-09-09T04:03:44;4.80;;;1.70;;
14052;SDS011;7101;51.600;7.310;2022-09-09T04:06:11;5.03;;;1.50;;
14052;SDS011;7101;51.600;7.310;2022-09-09T04:08:40;6.63;;;1.75;;
14052;SDS011;7101;51.600;7.310;2022-09-09T04:11:09;4.50;;;1.60;;
14052;SDS011;7101;51.600;7.310;2022-09-09T04:13:36;4.15;;;1.42;;
14052;SDS011;7101;51.600;7.310;2022-09-09T04:16:04;2.22;;;1.38;;
14052;SDS011;7101;51.600;7.310;2022-09-09T04:18:31;5.68;;;1.70;;
14052;SDS011;7101;51.600;7.310;2022-09-09T04:20:59;3.08;;;1.65;;
14052;SDS011;7101;51.600;7.310;2022-09-09T04:23:26;4.15;;;1.70;;
14052;SDS011;7101;51.600;7.310;2022-09-09T04:25:55;3.08;;;1.50;;
14052;SDS011;7101;51.600;7.310;2022-09-09T04:28:25;3.67;;;1.50;;
14052;SDS011;7101;51.600;7.310;2022-09-09T04:30:53;6.80;;;1.60;;
14052;SDS011;7101;51.600;7.310;2022-09-09T04:33:20;4.32;;;1.73;;
14052;SDS011;7101;51.600;7.310;2022-09-09T04:35:47;4.85;;;1.73;;
14052;SDS011;7101;51.600;7.310;2022-09-09T04:38:15;4.93;;;1.48;;
14052;SDS011;7101;51.600;7.310;2022-09-09T04:40:43;4.43;;;1.80;;
14052;SDS011;7101;51.600;7.310;2022-09-09T04:43:11;6.20;;;1.80;;
14052;SDS011;7101;51.600;7.310;2022-09-09T04:45:40;4.55;;;1.50;;
14052;SDS011;7101;51.600;7.310;2022-09-09T04:48:07;5.70;;;1.70;;
14052;SDS011;7101;51.600;7.310;2022-09-09T04:50:35;3.75;;;1.50;;
14052;SDS011;7101;51.600;7.310;2022-09-09T04:53:02;4.45;;;1.80;;
14052;SDS011;7101;51.600;7.310;2022-09-09T04:55:30;5.82;;;1.80;;
14052;SDS011;7101;51.600;7.310;2022-09-09T04:57:58;3.28;;;1.38;;
14052;SDS011;7101;51.600;7.310;2022-09-09T05:00:30;4.70;;;1.67;;
14052;SDS011;7101;51.600;7.310;2022-09-09T05:02:58;3.17;;;1.40;;
14052;SDS011;7101;51.600;7.310;2022-09-09T05:05:28;4.70;;;1.60;;
14052;SDS011;7101;51.600;7.310;2022-09-09T05:07:59;4.95;;;1.45;;
14052;SDS011;7101;51.600;7.310;2022-09-09T05:10:28;4.13;;;1.55;;
14052;SDS011;7101;51.600;7.310;2022-09-09T05:12:55;3.58;;;1.60;;
14052;SDS011;7101;51.600;7.310;2022-09-09T05:15:21;3.45;;;1.38;;
14052;SDS011;7101;51.600;7.310;2022-09-09T05:17:49;4.72;;;1.85;;
14052;SDS011;7101;51.600;7.310;2022-09-09T05:20:18;6.47;;;1.67;;
14052;SDS011;7101;51.600;7.310;2022-09-09T05:22:46;2.95;;;1.75;;
14052;SDS011;7101;51.600;7.310;2022-09-09T05:25:13;3.63;;;1.50;;
14052;SDS011;7101;51.600;7.310;2022-09-09T05:27:39;6.07;;;1.58;;
14052;SDS011;7101;51.600;7.310;2022-09-09T05:30:07;6.82;;;1.67;;
14052;SDS011;7101;51.600;7.310;2022-09-09T05:32:35;5.38;;;1.75;;
14052;SDS011;7101;51.600;7.310;2022-09-09T05:35:02;7.53;;;1.90;;
14052;SDS011;7101;51.600;7.310;2022-09-09T05:37:31;4.40;;;1.90;;
14052;SDS011;7101;51.600;7.310;2022-09-09T05:39:58;8.35;;;2.20;;
14052;SDS011;7101;51.600;7.310;2022-09-09T05:42:29;5.68;;;1.83;;
14052;SDS011;7101;51.600;7.310;2022-09-09T05:44:56;7.57;;;2.00;;
14052;SDS011;7101;51.600;7.310;2022-09-09T05:47:23;6.82;;;1.60;;
14052;SDS011;7101;51.600;7.310;2022-09-09T05:49:53;5.32;;;1.70;;
14052;SDS011;7101;51.600;7.310;2022-09-09T05:52:21;5.57;;;1.60;;
14052;SDS011;7101;51.600;7.310;2022-09-09T05:54:50;5.35;;;1.90;;
14052;SDS011;7101;51.600;7.310;2022-09-09T05:57:16;5.47;;;1.95;;
14052;SDS011;7101;51.600;7.310;2022-09-09T05:59:45;3.40;;;1.58;;
14052;SDS011;7101;51.600;7.310;2022-09-09T06:02:12;4.13;;;1.50;;
14052;SDS011;7101;51.600;7.310;2022-09-09T06:04:39;4.63;;;1.75;;
14052;SDS011;7101;51.600;7.310;2022-09-09T06:07:07;2.90;;;1.50;;
14052;SDS011;7101;51.600;7.310;2022-09-09T06:09:33;4.72;;;1.58;;
14052;SDS011;7101;51.600;7.310;2022-09-09T06:12:02;5.82;;;1.80;;
14052;SDS011;7101;51.600;7.310;2022-09-09T06:14:29;5.95;;;1.85;;
14052;SDS011;7101;51.600;7.310;2022-09-09T06:16:56;7.30;;;1.83;;
14052;SDS011;7101;51.600;7.310;2022-09-09T06:19:23;6.35;;;2.08;;
14052;SDS011;7101;51.600;7.310;2022-09-09T06:21:51;5.22;;;1.60;;
14052;SDS011;7101;51.600;7.310;2022-09-09T06:24:18;8.07;;;1.70;;
14052;SDS011;7101;51.600;7.310;2022-09-09T06:26:45;4.93;;;1.83;;
14052;SDS011;7101;51.600;7.310;2022-09-09T06:29:13;4.78;;;1.83;;
14052;SDS011;7101;51.600;7.310;2022-09-09T06:31:40;4.93;;;1.63;;
14052;SDS011;7101;51.600;7.310;2022-09-09T06:34:07;3.65;;;1.67;;
14052;SDS011;7101;51.600;7.310;2022-09-09T06:36:35;4.53;;;1.58;;
14052;SDS011;7101;51.600;7.310;2022-09-09T06:39:03;6.78;;;1.92;;
14052;SDS011;7101;51.600;7.310;2022-09-09T06:41:31;5.38;;;1.55;;
14052;SDS011;7101;51.600;7.310;2022-09-09T06:43:58;6.30;;;1.70;;
14052;SDS011;7101;51.600;7.310;2022-09-09T06:46:27;5.53;;;1.95;;
14052;SDS011;7101;51.600;7.310;2022-09-09T06:48:57;10.25;;;2.05;;
14052;SDS011;7101;51.600;7.310;2022-09-09T06:51:25;6.82;;;1.77;;
14052;SDS011;7101;51.600;7.310;2022-09-09T06:53:54;8.68;;;1.70;;
14052;SDS011;7101;51.600;7.310;2022-09-09T06:56:22;4.30;;;1.50;;
14052;SDS011;7101;51.600;7.310;2022-09-09T06:58:50;4.60;;;1.65;;
14052;SDS011;7101;51.600;7.310;2022-09-09T07:01:18;4.55;;;1.50;;
14052;SDS011;7101;51.600;7.310;2022-09-09T07:03:47;5.70;;;2.05;;
14052;SDS011;7101;51.600;7.310;2022-09-09T07:06:16;5.45;;;1.58;;
14052;SDS011;7101;51.600;7.310;2022-09-09T07:08:48;6.10;;;1.98;;
14052;SDS011;7101;51.600;7.310;2022-09-09T07:11:17;6.15;;;1.73;;
14052;SDS011;7101;51.600;7.310;2022-09-09T07:13:46;6.40;;;1.40;;
14052;SDS011;7101;51.600;7.310;2022-09-09T07:16:14;5.43;;;1.67;;
14052;SDS011;7101;51.600;7.310;2022-09-09T07:18:42;9.77;;;2.00;;
14052;SDS011;7101;51.600;7.310;2022-09-09T07:21:11;4.95;;;1.50;;
14052;SDS011;7101;51.600;7.310;2022-09-09T07:23:39;5.03;;;1.50;;
14052;SDS011;7101;51.600;7.310;2022-09-09T07:26:07;6.57;;;1.75;;
14052;SDS011;7101;51.600;7.310;2022-09-09T07:28:35;8.05;;;1.60;;
14052;SDS011;7101;51.600;7.310;2022-09-09T07:31:03;6.28;;;1.80;;
14052;SDS011;7101;51.600;7.310;2022-09-09T07:33:31;3.85;;;1.38;;
14052;SDS011;7101;51.600;7.310;2022-09-09T07:36:03;5.35;;;1.50;;
14052;SDS011;7101;51.600;7.310;2022-09-09T07:38:36;5.80;;;1.73;;
14052;SDS011;7101;51.600;7.310;2022-09-09T07:41:05;6.18;;;1.40;;
14052;SDS011;7101;51.600;7.310;2022-09-09T07:43:33;6.47;;;1.90;;
14052;SDS011;7101;51.600;7.310;2022-09-09T07:46:00;4.57;;;1.55;;
14052;SDS011;7101;51.600;7.310;2022-09-09T07:48:28;5.32;;;1.50;;
14052;SDS011;7101;51.600;7.310;2022-09-09T07:51:02;6.95;;;1.30;;
14052;SDS011;7101;51.600;7.310;2022-09-09T07:53:34;3.50;;;1.27;;
14052;SDS011;7101;51.600;7.310;2022-09-09T07:56:04;4.63;;;1.40;;
14052;SDS011;7101;51.600;7.310;2022-09-09T07:58:32;4.32;;;1.27;;
14052;SDS011;7101;51.600;7.310;2022-09-09T08:00:58;6.13;;;1.40;;
14052;SDS011;7101;51.600;7.310;2022-09-09T08:03:25;5.43;;;1.60;;
14052;SDS011;7101;51.600;7.310;2022-09-09T08:05:52;3.45;;;1.40;;
14052;SDS011;7101;51.600;7.310;2022-09-09T08:08:19;5.55;;;1.65;;
14052;SDS011;7101;51.600;7.310;2022-09-09T08:10:47;5.22;;;1.48;;
14052;SDS011;7101;51.600;7.310;2022-09-09T08:13:14;4.45;;;1.20;;
14052;SDS011;7101;51.600;7.310;2022-09-09T08:15:43;3.85;;;1.50;;
14052;SDS011;7101;51.600;7.310;2022-09-09T08:18:10;5.55;;;1.10;;
14052;SDS011;7101;51.600;7.310;2022-09-09T08:20:37;5.05;;;1.23;;
14052;SDS011;7101;51.600;7.310;2022-09-09T08:23:03;5.68;;;1.40;;
14052;SDS011;7101;51.600;7.310;2022-09-09T08:25:31;4.13;;;1.40;;
14052;SDS011;7101;51.600;7.310;2022-09-09T08:27:59;3.75;;;1.30;;
14052;SDS011;7101;51.600;7.310;2022-09-09T08:30:28;4.55;;;1.35;;
14052;SDS011;7101;51.600;7.310;2022-09-09T08:32:55;6.55;;;1.58;;
14052;SDS011;7101;51.600;7.310;2022-09-09T08:35:21;2.65;;;1.10;;
14052;SDS011;7101;51.600;7.310;2022-09-09T08:37:48;3.00;;;1.10;;
14052;SDS011;7101;51.600;7.310;2022-09-09T08:40:21;4.10;;;1.40;;
14052;SDS011;7101;51.600;7.310;2022-09-09T08:43:00;5.65;;;1.45;;
14052;SDS011;7101;51.600;7.310;2022-09-09T08:45:30;6.43;;;1.33;;
14052;SDS011;7101;51.600;7.310;2022-09-09T08:48:04;2.90;;;1.40;;
14052;SDS011;7101;51.600;7.310;2022-09-09T08:50:40;4.32;;;1.50;;
14052;SDS011;7101;51.600;7.310;2022-09-09T08:53:10;6.03;;;1.85;;
14052;SDS011;7101;51.600;7.310;2022-09-09T08:55:42;4.43;;;1.48;;
14052;SDS011;7101;51.600;7.310;2022-09-09T08:58:16;8.30;;;1.50;;
14052;SDS011;7101;51.600;7.310;2022-09-09T09:00:51;9.43;;;1.60;;
14052;SDS011;7101;51.600;7.310;2022-09-09T09:03:30;5.55;;;1.63;;
14052;SDS011;7101;51.600;7.310;2022-09-09T09:06:04;6.82;;;1.83;;
14052;SDS011;7101;51.600;7.310;2022-09-09T09:08:42;4.60;;;1.40;;
14052;SDS011;7101;51.600;7.310;2022-09-09T09:11:14;6.30;;;1.70;;
14052;SDS011;7101;51.600;7.310;2022-09-09T09:13:43;5.55;;;1.70;;
14052;SDS011;7101;51.600;7.310;2022-09-09T09:16:17;5.38;;;1.52;;
14052;SDS011;7101;51.600;7.310;2022-09-09T09:18:49;6.30;;;1.58;;
14052;SDS011;7101;51.600;7.310;2022-09-09T09:21:18;6.25;;;1.65;;
14052;SDS011;7101;51.600;7.310;2022-09-09T09:23:53;6.25;;;1.65;;
14052;SDS011;7101;51.600;7.310;2022-09-09T09:26:23;3.35;;;1.52;;
14052;SDS011;7101;51.600;7.310;2022-09-09T09:28:53;7.07;;;1.65;;
14052;SDS011;7101;51.600;7.310;2022-09-09T09:31:22;5.22;;;1.50;;
14052;SDS011;7101;51.600;7.310;2022-09-09T09:33:52;6.25;;;1.80;;
14052;SDS011;7101;51.600;7.310;2022-09-09T09:36:22;3.92;;;1.60;;
14052;SDS011;7101;51.600;7.310;2022-09-09T09:38:53;4.22;;;1.20;;
14052;SDS011;7101;51.600;7.310;2022-09-09T09:41:31;4.80;;;1.80;;
14052;SDS011;7101;51.600;7.310;2022-09-09T09:44:02;5.28;;;1.52;;
14052;SDS011;7101;51.600;7.310;2022-09-09T09:46:29;2.55;;;1.30;;
14052;SDS011;7101;51.600;7.310;2022-09-09T09:48:57;4.72;;;1.48;;
14052;SDS011;7101;51.600;7.310;2022-09-09T09:51:25;4.60;;;1.48;;
14052;SDS011;7101;51.600;7.310;2022-09-09T09:53:54;3.17;;;1.55;;
14052;SDS011;7101;51.600;7.310;2022-09-09T09:56:30;3.58;;;1.38;;
14052;SDS011;7101;51.600;7.310;2022-09-09T09:58:58;5.70;;;1.48;;
14052;SDS011;7101;51.600;7.310;2022-09-09T10:01:26;4.47;;;1.50;;
14052;SDS011;7101;51.600;7.310;2022-09-09T10:03:57;5.63;;;1.80;;
14052;SDS011;7101;51.600;7.310;2022-09-09T10:06:30;4.00;;;1.60;;
14052;SDS011;7101;51.600;7.310;2022-09-09T10:08:59;4.82;;;1.85;;
14052;SDS011;7101;51.600;7.310;2022-09-09T10:11:30;3.33;;;1.50;;
14052;SDS011;7101;51.600;7.310;2022-09-09T10:14:13;4.38;;;1.75;;
14052;SDS011;7101;51.600;7.310;2022-09-09T10:16:50;3.78;;;1.65;;
14052;SDS011;7101;51.600;7.310;2022-09-09T10:19:29;6.18;;;3.63;;
14052;SDS011;7101;51.600;7.310;2022-09-09T10:22:02;4.22;;;1.90;;
14052;SDS011;7101;51.600;7.310;2022-09-09T10:24:48;6.63;;;1.60;;
14052;SDS011;7101;51.600;7.310;2022-09-09T10:27:42;5.50;;;1.58;;
14052;SDS011;7101;51.600;7.310;2022-09-09T10:30:19;2.78;;;1.17;;
14052;SDS011;7101;51.600;7.310;2022-09-09T10:32:51;4.65;;;1.50;;
14052;SDS011;7101;51.600;7.310;2022-09-09T10:35:29;5.90;;;1.80;;
14052;SDS011;7101;51.600;7.310;2022-09-09T10:38:10;6.15;;;1.60;;
14052;SDS011;7101;51.600;7.310;2022-09-09T10:40:43;4.68;;;1.38;;
14052;SDS011;7101;51.600;7.310;2022-09-09T10:43:20;6.57;;;1.80;;
14052;SDS011;7101;51.600;7.310;2022-09-09T10:45:56;3.47;;;1.10;;
14052;SDS011;7101;51.600;7.310;2022-09-09T10:48:43;4.82;;;1.30;;
14052;SDS011;7101;51.600;7.310;2022-09-09T10:51:23;5.10;;;1.38;;
14052;SDS011;7101;51.600;7.310;2022-09-09T10:54:06;3.17;;;1.13;;
14052;SDS011;7101;51.600;7.310;2022-09-09T10:56:48;4.20;;;1.30;;
14052;SDS011;7101;51.600;7.310;2022-09-09T10:59:22;3.47;;;1.23;;
14052;SDS011;7101;51.600;7.310;2022-09-09T11:01:53;2.53;;;1.00;;
14052;SDS011;7101;51.600;7.310;2022-09-09T11:04:27;6.25;;;1.38;;
14052;SDS011;7101;51.600;7.310;2022-09-09T11:06:59;4.00;;;1.05;;
14052;SDS011;7101;51.600;7.310;2022-09-09T11:09:32;4.47;;;1.38;;
14052;SDS011;7101;51.600;7.310;2022-09-09T11:12:04;4.35;;;1.25;;
14052;SDS011;7101;51.600;7.310;2022-09-09T11:14:38;4.38;;;1.30;;
14052;SDS011;7101;51.600;7.310;2022-09-09T11:17:10;5.07;;;1.40;;
14052;SDS011;7101;51.600;7.310;2022-09-09T11:19:42;2.97;;;1.17;;
14052;SDS011;7101;51.600;7.310;2022-09-09T11:22:14;3.45;;;1.27;;
14052;SDS011;7101;51.600;7.310;2022-09-09T11:24:49;3.60;;;1.20;;
14052;SDS011;7101;51.600;7.310;2022-09-09T11:27:20;3.88;;;1.38;;
14052;SDS011;7101;51.600;7.310;2022-09-09T11:32:54;3.20;;;1.23;;
14052;SDS011;7101;51.600;7.310;2022-09-09T11:35:46;2.75;;;1.10;;
14052;SDS011;7101;51.600;7.310;2022-09-09T11:38:24;4.00;;;1.42;;
14052;SDS011;7101;51.600;7.310;2022-09-09T11:40:56;2.85;;;1.00;;
14052;SDS011;7101;51.600;7.310;2022-09-09T11:43:26;1.75;;;1.00;;
14052;SDS011;7101;51.600;7.310;2022-09-09T11:45:55;3.92;;;1.20;;
14052;SDS011;7101;51.600;7.310;2022-09-09T11:48:26;3.95;;;1.20;;
14052;SDS011;7101;51.600;7.310;2022-09-09T11:50:59;2.75;;;1.00;;
14052;SDS011;7101;51.600;7.310;2022-09-09T11:53:30;3.08;;;1.15;;
14052;SDS011;7101;51.600;7.310;2022-09-09T11:56:09;2.70;;;1.00;;
14052;SDS011;7101;51.600;7.310;2022-09-09T11:58:39;3.47;;;1.00;;
14052;SDS011;7101;51.600;7.310;2022-09-09T12:03:59;3.95;;;1.30;;
14052;SDS011;7101;51.600;7.310;2022-09-09T12:06:41;1.73;;;0.90;;
14052;SDS011;7101;51.600;7.310;2022-09-09T12:09:15;4.18;;;1.00;;
14052;SDS011;7101;51.600;7.310;2022-09-09T12:12:04;2.92;;;0.80;;
14052;SDS011;7101;51.600;7.310;2022-09-09T12:14:35;2.95;;;1.20;;
14052;SDS011;7101;51.600;7.310;2022-09-09T12:19:47;3.10;;;1.17;;
14052;SDS011;7101;51.600;7.310;2022-09-09T12:22:18;4.72;;;1.00;;
14052;SDS011;7101;51.600;7.310;2022-09-09T12:24:54;2.67;;;1.05;;
14052;SDS011;7101;51.600;7.310;2022-09-09T12:27:31;2.80;;;1.20;;
14052;SDS011;7101;51.600;7.310;2022-09-09T12:30:03;4.00;;;1.20;;
14052;SDS011;7101;51.600;7.310;2022-09-09T12:32:35;2.65;;;1.08;;
14052;SDS011;7101;51.600;7.310;2022-09-09T12:35:03;2.63;;;1.00;;
14052;SDS011;7101;51.600;7.310;2022-09-09T12:37:38;3.05;;;0.90;;
14052;SDS011;7101;51.600;7.310;2022-09-09T12:40:18;2.92;;;1.02;;
14052;SDS011;7101;51.600;7.310;2022-09-09T12:42:47;2.20;;;0.90;;
14052;SDS011;7101;51.600;7.310;2022-09-09T12:45:17;4.45;;;1.30;;
14052;SDS011;7101;51.600;7.310;2022-09-09T12:47:46;1.90;;;0.90;;
14052;SDS011;7101;51.600;7.310;2022-09-09T12:50:17;4.55;;;1.08;;
14052;SDS011;7101;51.600;7.310;2022-09-09T12:52:49;3.80;;;1.10;;
14052;SDS011;7101;51.600;7.310;2022-09-09T12:55:19;2.58;;;0.90;;
14052;SDS011;7101;51.600;7.310;2022-09-09T12:57:50;1.98;;;1.00;;
14052;SDS011;7101;51.600;7.310;2022-09-09T13:00:17;3.03;;;1.33;;
14052;SDS011;7101;51.600;7.310;2022-09-09T13:02:48;2.75;;;1.10;;
14052;SDS011;7101;51.600;7.310;2022-09-09T13:05:18;4.95;;;1.02;;
14052;SDS011;7101;51.600;7.310;2022-09-09T13:07:47;3.70;;;1.40;;
14052;SDS011;7101;51.600;7.310;2022-09-09T13:10:20;2.00;;;1.20;;
14052;SDS011;7101;51.600;7.310;2022-09-09T13:12:49;2.08;;;0.82;;
14052;SDS011;7101;51.600;7.310;2022-09-09T13:15:19;4.18;;;1.10;;
14052;SDS011;7101;51.600;7.310;2022-09-09T13:17:50;2.97;;;0.95;;
14052;SDS011;7101;51.600;7.310;2022-09-09T13:20:19;4.68;;;1.15;;
14052;SDS011;7101;51.600;7.310;2022-09-09T13:22:49;3.13;;;0.90;;
14052;SDS011;7101;51.600;7.310;2022-09-09T13:25:18;2.22;;;0.95;;
14052;SDS011;7101;51.600;7.310;2022-09-09T13:27:52;2.53;;;0.85;;
14052;SDS011;7101;51.600;7.310;2022-09-09T13:30:24;4.20;;;1.00;;
14052;SDS011;7101;51.600;7.310;2022-09-09T13:33:05;20.52;;;2.90;;
14052;SDS011;7101;51.600;7.310;2022-09-09T13:35:45;2.53;;;0.80;;
14052;SDS011;7101;51.600;7.310;2022-09-09T13:38:16;2.28;;;1.17;;
14052;SDS011;7101;51.600;7.310;2022-09-09T13:40:52;3.95;;;0.98;;
14052;SDS011;7101;51.600;7.310;2022-09-09T13:43:22;2.90;;;0.93;;
14052;SDS011;7101;51.600;7.310;2022-09-09T13:45:54;2.95;;;0.88;;
14052;SDS011;7101;51.600;7.310;2022-09-09T13:48:22;3.17;;;1.10;;
14052;SDS011;7101;51.600;7.310;2022-09-09T13:50:54;4.15;;;1.00;;
14052;SDS011;7101;51.600;7.310;2022-09-09T13:53:24;3.20;;;1.20;;
14052;SDS011;7101;51.600;7.310;2022-09-09T13:55:52;3.35;;;1.05;;
14052;SDS011;7101;51.600;7.310;2022-09-09T13:58:19;2.38;;;1.13;;
14052;SDS011;7101;51.600;7.310;2022-09-09T14:00:48;8.88;;;1.98;;
14052;SDS011;7101;51.600;7.310;2022-09-09T14:03:16;6.80;;;1.95;;
14052;SDS011;7101;51.600;7.310;2022-09-09T14:05:43;3.90;;;1.30;;
14052;SDS011;7101;51.600;7.310;2022-09-09T14:08:12;6.65;;;1.70;;
14052;SDS011;7101;51.600;7.310;2022-09-09T14:10:46;7.85;;;2.60;;
14052;SDS011;7101;51.600;7.310;2022-09-09T14:13:13;6.60;;;2.53;;
14052;SDS011;7101;51.600;7.310;2022-09-09T14:15:40;7.07;;;3.20;;
14052;SDS011;7101;51.600;7.310;2022-09-09T14:18:08;9.50;;;3.60;;
14052;SDS011;7101;51.600;7.310;2022-09-09T14:20:37;6.43;;;2.72;;
14052;SDS011;7101;51.600;7.310;2022-09-09T14:23:09;8.30;;;2.60;;
14052;SDS011;7101;51.600;7.310;2022-09-09T14:25:39;7.30;;;2.60;;
14052;SDS011;7101;51.600;7.310;2022-09-09T14:28:10;3.85;;;1.83;;
14052;SDS011;7101;51.600;7.310;2022-09-09T14:30:37;8.07;;;1.90;;
14052;SDS011;7101;51.600;7.310;2022-09-09T14:33:05;2.58;;;1.38;;
14052;SDS011;7101;51.600;7.310;2022-09-09T14:35:33;5.22;;;1.77;;
14052;SDS011;7101;51.600;7.310;2022-09-09T14:38:01;4.90;;;1.90;;
14052;SDS011;7101;51.600;7.310;2022-09-09T14:40:28;5.20;;;1.77;;
14052;SDS011;7101;51.600;7.310;2022-09-09T14:42:55;4.15;;;1.70;;
14052;SDS011;7101;51.600;7.310;2022-09-09T14:45:24;3.05;;;1.85;;
14052;SDS011;7101;51.600;7.310;2022-09-09T14:47:52;4.15;;;1.20;;
14052;SDS011;7101;51.600;7.310;2022-09-09T14:50:19;4.43;;;1.35;;
14052;SDS011;7101;51.600;7.310;2022-09-09T14:52:47;5.00;;;1.70;;
14052;SDS011;7101;51.600;7.310;2022-09-09T14:55:15;5.68;;;1.67;;
14052;SDS011;7101;51.600;7.310;2022-09-09T14:57:42;5.13;;;2.15;;
14052;SDS011;7101;51.600;7.310;2022-09-09T15:00:10;3.20;;;1.52;;
14052;SDS011;7101;51.600;7.310;2022-09-09T15:02:39;5.82;;;1.70;;
14052;SDS011;7101;51.600;7.310;2022-09-09T15:05:06;3.30;;;1.33;;
14052;SDS011;7101;51.600;7.310;2022-09-09T15:07:34;2.58;;;1.33;;
14052;SDS011;7101;51.600;7.310;2022-09-09T15:10:01;4.53;;;1.50;;
14052;SDS011;7101;51.600;7.310;2022-09-09T15:12:29;3.78;;;1.58;;
14052;SDS011;7101;51.600;7.310;2022-09-09T15:14:56;4.90;;;1.80;;
14052;SDS011;7101;51.600;7.310;2022-09-09T15:17:23;3.60;;;1.45;;
14052;SDS011;7101;51.600;7.310;2022-09-09T15:19:53;3.10;;;1.30;;
14052;SDS011;7101;51.600;7.310;2022-09-09T15:22:20;2.33;;;1.33;;
14052;SDS011;7101;51.600;7.310;2022-09-09T15:24:49;4.25;;;1.60;;
14052;SDS011;7101;51.600;7.310;2022-09-09T15:27:16;3.10;;;1.60;;
14052;SDS011;7101;51.600;7.310;2022-09-09T15:29:43;3.92;;;1.50;;
14052;SDS011;7101;51.600;7.310;2022-09-09T15:32:10;5.22;;;1.55;;